Time;durP1;ratioP1;P1;durP2;ratioP2;P2;SDS_P1;SDS_P2;PMS_P1;PMS_P2;Temp;Humidity;BMP_temperature;BMP_pressure;BME280_temperature;BME280_humidity;BME280_pressure;Samples;Min_cycle;Max_cycle;Signal;HPM_P1;HPM_P2
2023/06/18 00:00:19;;;;;;;17.00;15.20;;;;;;;16.06;100.00;94342.94;5089401;28;20217;-45
2023/06/18 00:02:46;;;;;;;16.23;14.63;;;;;;;16.06;100.00;94348.09;5089821;28;20212;-45
2023/06/18 00:05:13;;;;;;;16.53;14.80;;;;;;;16.02;100.00;94344.31;5089366;28;20192;-46
2023/06/18 00:07:40;;;;;;;16.03;14.43;;;;;;;16.04;100.00;94339.75;5089838;28;20252;-46
2023/06/18 00:10:08;;;;;;;17.40;15.60;;;;;;;16.05;100.00;94351.66;5089845;28;20200;-47
2023/06/18 00:12:37;;;;;;;17.87;16.13;;;;;;;16.08;100.00;94345.34;5089775;28;20632;-44
2023/06/18 00:15:04;;;;;;;18.50;16.60;;;;;;;16.05;100.00;94347.31;5089611;28;20220;-46
2023/06/18 00:17:31;;;;;;;17.83;16.03;;;;;;;16.08;100.00;94347.94;5090336;28;20182;-46
2023/06/18 00:19:58;;;;;;;17.73;15.87;;;;;;;16.07;100.00;94343.75;5091676;28;20182;-47
2023/06/18 00:22:26;;;;;;;19.30;17.30;;;;;;;16.03;100.00;94338.97;5094512;28;20198;-47
2023/06/18 00:24:54;;;;;;;23.10;16.90;;;;;;;16.07;100.00;94344.56;5095184;28;20225;-46
2023/06/18 00:27:21;;;;;;;20.10;16.97;;;;;;;16.08;100.00;94345.34;5093927;28;20275;-46
2023/06/18 00:29:50;;;;;;;18.57;16.57;;;;;;;16.08;100.00;94350.53;5093608;28;20277;-46
2023/06/18 00:32:17;;;;;;;19.13;17.23;;;;;;;16.08;100.00;94342.78;5093407;28;20229;-50
2023/06/18 00:34:46;;;;;;;18.67;16.80;;;;;;;16.05;100.00;94341.34;5093073;28;20197;-47
2023/06/18 00:37:13;;;;;;;19.43;17.33;;;;;;;16.07;100.00;94344.56;5093605;28;20262;-46
2023/06/18 00:39:40;;;;;;;20.57;18.10;;;;;;;16.05;100.00;94346.50;5093494;28;20198;-45
2023/06/18 00:42:10;;;;;;;20.00;17.90;;;;;;;16.08;100.00;94343.56;5092999;28;20221;-47
2023/06/18 00:44:40;;;;;;;18.97;17.07;;;;;;;16.06;100.00;94340.34;5092960;28;20186;-45
2023/06/18 00:47:11;;;;;;;19.43;17.53;;;;;;;16.10;100.00;94341.59;5092773;28;20606;-46
2023/06/18 00:49:38;;;;;;;19.33;17.53;;;;;;;16.08;100.00;94342.78;5093122;28;20194;-45
2023/06/18 00:52:06;;;;;;;19.57;17.63;;;;;;;16.08;100.00;94338.41;5093114;28;20208;-47
2023/06/18 00:54:35;;;;;;;19.70;17.63;;;;;;;16.07;100.00;94339.41;5093220;28;20200;-46
2023/06/18 00:57:03;;;;;;;18.90;17.00;;;;;;;16.05;100.00;94336.19;5092924;28;20205;-45
2023/06/18 00:59:32;;;;;;;19.50;17.37;;;;;;;16.08;100.00;94335.84;5092920;28;20189;-46
2023/06/18 01:02:01;;;;;;;20.30;18.30;;;;;;;15.94;100.00;94309.09;5092948;28;20641;-46
2023/06/18 01:04:32;;;;;;;20.63;18.43;;;;;;;16.08;100.00;94338.41;5092970;28;20207;-47
2023/06/18 01:07:01;;;;;;;21.30;18.77;;;;;;;16.08;100.00;94337.63;5092843;28;20563;-46
2023/06/18 01:09:30;;;;;;;20.10;18.07;;;;;;;16.09;100.00;94344.38;5092493;28;20224;-45
2023/06/18 01:12:00;;;;;;;20.43;18.23;;;;;;;16.07;100.00;94336.81;5092266;28;20587;-46
2023/06/18 01:14:28;;;;;;;20.90;18.87;;;;;;;16.08;100.00;94335.03;5092185;28;20665;-46
2023/06/18 01:16:57;;;;;;;21.53;19.27;;;;;;;16.07;100.00;94341.97;5092914;28;20193;-45
2023/06/18 01:19:40;;;;;;;20.23;18.23;;;;;;;16.02;100.00;94336.56;5093189;28;20247;-47
2023/06/18 01:22:21;;;;;;;20.83;18.63;;;;;;;16.02;100.00;94328.84;5092847;28;20231;-47
2023/06/18 01:24:51;;;;;;;27.83;18.87;;;;;;;16.04;100.00;94348.28;5092513;28;20207;-45
2023/06/18 01:27:21;;;;;;;20.97;18.87;;;;;;;16.04;100.00;94340.56;5092024;28;20224;-46
2023/06/18 01:29:50;;;;;;;20.80;18.70;;;;;;;15.88;100.00;94312.38;5092821;28;20308;-45
2023/06/18 01:32:17;;;;;;;20.60;18.23;;;;;;;16.05;100.00;94338.78;5092996;28;20289;-45
2023/06/18 01:34:47;;;;;;;21.17;19.10;;;;;;;16.04;100.00;94345.72;5094435;28;20652;-48
2023/06/18 01:37:24;;;;;;;20.40;18.43;;;;;;;16.04;100.00;94340.56;5092681;28;20260;-46
2023/06/18 01:39:57;;;;;;;24.70;18.27;;;;;;;16.05;100.00;94341.34;5092317;28;20188;-46
2023/06/18 01:42:28;;;;;;;20.73;18.67;;;;;;;16.03;100.00;94340.75;5091622;28;20210;-47
2023/06/18 01:45:03;;;;;;;20.23;18.10;;;;;;;16.04;100.00;94343.13;5091820;28;20197;-46
2023/06/18 01:47:31;;;;;;;22.33;20.00;;;;;;;15.92;100.00;94321.34;5091574;28;20189;-44
2023/06/18 01:50:02;;;;;;;21.40;19.17;;;;;;;16.02;100.00;94341.72;5091642;28;20190;-44
2023/06/18 01:52:32;;;;;;;20.53;18.53;;;;;;;16.02;100.00;94341.72;5091233;28;20182;-46
2023/06/18 01:55:03;;;;;;;21.97;19.63;;;;;;;16.00;100.00;94341.09;5092053;28;20186;-42
2023/06/18 01:57:32;;;;;;;21.37;19.27;;;;;;;16.01;100.00;94342.69;5091473;28;20206;-45
2023/06/18 01:59:58;;;;;;;24.63;20.13;;;;;;;16.02;100.00;94349.47;5091398;28;20182;-46
2023/06/18 02:02:25;;;;;;;21.07;18.83;;;;;;;16.00;100.00;94347.03;5091265;28;20229;-47
2023/06/18 02:04:52;;;;;;;20.97;18.80;;;;;;;15.87;100.00;94322.88;5093911;28;20186;-46
2023/06/18 02:07:20;;;;;;;21.77;19.67;;;;;;;16.00;100.00;94343.66;5091982;28;20197;-46
2023/06/18 02:09:47;;;;;;;21.70;19.03;;;;;;;15.99;100.00;94350.63;5091935;28;20194;-46
2023/06/18 02:12:14;;;;;;;21.43;19.33;;;;;;;15.94;100.00;94340.03;5090919;28;20193;-46
2023/06/18 02:14:41;;;;;;;26.37;19.63;;;;;;;15.98;100.00;94343.84;5091799;28;20243;-47
2023/06/18 02:17:07;;;;;;;26.73;20.17;;;;;;;16.01;100.00;94353.78;5091775;28;20200;-47
2023/06/18 02:19:34;;;;;;;20.83;18.73;;;;;;;15.98;100.00;94348.22;5090988;28;20596;-47
2023/06/18 02:22:01;;;;;;;23.50;19.90;;;;;;;16.03;100.00;94356.22;5091018;28;20221;-46
2023/06/18 02:24:31;;;;;;;23.20;19.50;;;;;;;15.89;100.00;94329.47;5091134;28;20193;-46
2023/06/18 02:26:57;;;;;;;21.87;19.77;;;;;;;16.04;100.00;94352.66;5094775;28;20282;-46
2023/06/18 02:29:24;;;;;;;26.37;20.50;;;;;;;16.04;100.00;94350.88;5097088;28;20215;-45
2023/06/18 02:31:51;;;;;;;21.73;19.53;;;;;;;16.06;100.00;94353.25;5093687;28;20201;-45
2023/06/18 02:34:19;;;;;;;21.40;19.33;;;;;;;16.08;100.00;94351.31;5095737;28;20200;-44
2023/06/18 02:36:47;;;;;;;23.70;20.53;;;;;;;16.08;100.00;94351.31;5093521;28;20193;-44
2023/06/18 02:39:14;;;;;;;22.77;20.47;;;;;;;16.11;100.00;94360.47;5094662;28;20258;-46
2023/06/18 02:41:42;;;;;;;23.27;20.87;;;;;;;16.12;100.00;94356.91;5096622;28;20278;-44
2023/06/18 02:44:09;;;;;;;24.20;21.60;;;;;;;16.12;100.00;94364.66;5095461;28;20197;-44
2023/06/18 02:46:35;;;;;;;22.03;19.43;;;;;;;16.13;100.00;94361.09;5097110;28;20193;-46
2023/06/18 02:49:02;;;;;;;20.53;18.33;;;;;;;16.13;100.00;94361.09;5097358;28;20190;-46
2023/06/18 02:51:29;;;;;;;22.70;20.37;;;;;;;16.14;100.00;94368.63;5095121;28;20661;-46
2023/06/18 02:53:59;;;;;;;26.27;20.47;;;;;;;16.12;100.00;94364.66;5090703;28;20287;-46
2023/06/18 02:56:28;;;;;;;28.00;20.57;;;;;;;16.14;100.00;94367.84;5090301;28;20200;-46
2023/06/18 02:58:56;;;;;;;21.57;19.47;;;;;;;16.14;100.00;94362.69;5090574;28;20272;-44
2023/06/18 03:01:24;;;;;;;20.50;18.50;;;;;;;16.14;100.00;94376.38;5089882;28;20641;-46
2023/06/18 03:03:51;;;;;;;22.07;19.50;;;;;;;16.15;100.00;94374.59;5090390;28;20192;-43
2023/06/18 03:06:18;;;;;;;23.97;20.30;;;;;;;16.14;100.00;94371.22;5089886;28;20190;-47
2023/06/18 03:08:46;;;;;;;22.30;19.87;;;;;;;16.15;100.00;94377.19;5090473;28;20272;-46
2023/06/18 03:11:13;;;;;;;20.63;18.57;;;;;;;16.16;100.00;94379.59;5090033;28;20193;-46
2023/06/18 03:13:39;;;;;;;20.77;18.70;;;;;;;16.20;100.00;94378.25;5090165;28;20200;-47
2023/06/18 03:16:08;;;;;;;23.07;20.67;;;;;;;16.21;100.00;94379.84;5089861;28;20213;-45
2023/06/18 03:18:35;;;;;;;22.27;19.97;;;;;;;16.22;100.00;94375.50;5089909;28;20186;-45
2023/06/18 03:21:02;;;;;;;22.23;20.03;;;;;;;16.22;100.00;94365.97;5089830;28;20189;-45
2023/06/18 03:23:29;;;;;;;21.70;19.40;;;;;;;16.20;100.00;94361.97;5090181;28;20675;-47
2023/06/18 03:25:56;;;;;;;21.00;18.80;;;;;;;16.24;100.00;94371.75;5089848;28;20232;-45
2023/06/18 03:28:24;;;;;;;21.73;19.63;;;;;;;16.12;100.00;94346.59;5089534;28;20266;-44
2023/06/18 03:30:51;;;;;;;20.63;18.57;;;;;;;16.30;100.00;94370.22;5089796;28;20189;-45
2023/06/18 03:33:21;;;;;;;21.20;18.93;;;;;;;16.31;100.00;94375.19;5091206;28;20285;-45
2023/06/18 03:35:49;;;;;;;20.70;18.60;;;;;;;16.31;100.00;94370.03;5096917;28;20190;-48
2023/06/18 03:38:16;;;;;;;21.60;19.37;;;;;;;16.31;100.00;94369.25;5090603;28;20655;-45
2023/06/18 03:40:43;;;;;;;21.37;19.17;;;;;;;16.39;100.00;94370.94;5090486;28;20198;-45
2023/06/18 03:43:10;;;;;;;20.83;18.63;;;;;;;16.43;100.00;94372.97;5089992;28;20221;-45
2023/06/18 03:45:36;;;;;;;23.43;20.00;;;;;;;16.47;100.00;94378.56;5089927;28;20200;-46
2023/06/18 03:48:04;;;;;;;20.27;18.20;;;;;;;16.47;100.00;94374.22;5089098;28;20190;-45
2023/06/18 03:50:32;;;;;;;21.17;17.40;;;;;;;16.51;100.00;94374.66;5089792;28;20225;-46
2023/06/18 03:53:00;;;;;;;20.43;18.30;;;;;;;16.54;100.00;94380.25;5090354;28;20201;-43
2023/06/18 03:55:26;;;;;;;20.10;18.10;;;;;;;16.55;100.00;94379.25;5092482;28;20189;-45
2023/06/18 03:57:53;;;;;;;22.03;19.67;;;;;;;16.39;100.00;94350.28;5094364;28;20201;-45
2023/06/18 04:00:20;;;;;;;22.23;20.03;;;;;;;16.56;100.00;94380.84;5094234;28;20205;-43
2023/06/18 04:02:47;;;;;;;21.20;19.10;;;;;;;16.56;100.00;94380.84;5094157;28;20225;-46
2023/06/18 04:05:14;;;;;;;21.37;19.17;;;;;;;16.56;100.00;94378.28;5094740;28;20627;-45
2023/06/18 04:07:42;;;;;;;23.47;19.27;;;;;;;16.63;100.00;94390.47;5093918;28;20243;-46
2023/06/18 04:10:09;;;;;;;21.77;19.43;;;;;;;16.61;100.00;94385.47;5093425;28;20542;-45
2023/06/18 04:12:36;;;;;;;21.30;18.93;;;;;;;16.61;100.00;94377.72;5093306;28;20178;-46
2023/06/18 04:15:03;;;;;;;20.87;18.83;;;;;;;16.67;100.00;94386.53;5093241;28;20553;-45
2023/06/18 04:17:39;;;;;;;22.00;19.77;;;;;;;16.71;100.00;94391.16;5093338;28;20193;-47
2023/06/18 04:20:07;;;;;;;21.47;19.37;;;;;;;16.76;100.00;94391.44;5093410;28;20192;-47
2023/06/18 04:22:34;;;;;;;22.70;20.40;;;;;;;16.78;100.00;94386.88;5093209;28;20248;-45
2023/06/18 04:25:03;;;;;;;23.90;19.87;;;;;;;16.84;100.00;94387.13;5092715;28;20225;-46
2023/06/18 04:27:30;;;;;;;20.97;18.97;;;;;;;16.90;100.00;94401.91;5093550;28;20182;-45
2023/06/18 04:29:56;;;;;;;21.13;18.93;;;;;;;16.93;100.00;94401.53;5093331;28;20284;-45
2023/06/18 04:32:23;;;;;;;20.57;18.53;;;;;;;16.96;100.00;94406.31;5092582;28;20606;-45
2023/06/18 04:34:50;;;;;;;22.43;20.10;;;;;;;17.01;100.00;94409.97;5092470;28;20185;-44
2023/06/18 04:37:17;;;;;;;23.13;20.83;;;;;;;17.05;100.00;94400.88;5093142;28;20565;-45
2023/06/18 04:39:43;;;;;;;22.07;19.77;;;;;;;17.09;100.00;94403.06;5093043;28;20194;-47
2023/06/18 04:42:12;;;;;;;21.77;19.53;;;;;;;17.10;100.00;94396.91;5092450;28;20684;-47
2023/06/18 04:44:39;;;;;;;20.87;18.90;;;;;;;17.17;100.00;94408.13;5092754;28;20708;-45
2023/06/18 04:47:06;;;;;;;21.37;19.23;;;;;;;17.21;100.00;94404.19;5092681;28;20200;-46
2023/06/18 04:49:33;;;;;;;22.47;19.27;;;;;;;17.27;100.00;94406.00;5092630;28;20185;-45
2023/06/18 04:52:00;;;;;;;19.43;17.63;;;;;;;17.30;100.00;94410.81;5092807;28;20181;-47
2023/06/18 04:54:27;;;;;;;20.40;18.23;;;;;;;17.37;100.00;94409.09;5092960;28;20196;-43
2023/06/18 04:56:57;;;;;;;20.17;18.00;;;;;;;17.43;100.00;94426.44;5092529;28;20201;-46
2023/06/18 04:59:25;;;;;;;20.10;18.20;;;;;;;17.46;100.00;94428.66;5092948;28;20186;-45
2023/06/18 05:01:52;;;;;;;20.13;18.20;;;;;;;17.50;100.00;94429.09;5092164;28;20267;-44
2023/06/18 05:04:19;;;;;;;20.20;18.20;;;;;;;17.52;100.00;94429.69;5092178;28;20517;-47
2023/06/18 05:06:46;;;;;;;18.67;16.97;;;;;;;17.58;100.00;94431.53;5090157;28;20193;-47
2023/06/18 05:09:13;;;;;;;18.90;16.90;;;;;;;17.54;100.00;94430.31;5092459;28;20706;-46
2023/06/18 05:11:40;;;;;;;21.57;18.47;;;;;;;17.59;100.00;94442.69;5092015;28;20227;-45
2023/06/18 05:14:07;;;;;;;20.03;17.90;;;;;;;17.58;100.00;94446.25;5091845;28;20213;-47
2023/06/18 05:16:35;;;;;;;18.37;16.57;;;;;;;17.58;100.00;94448.84;5093244;28;20611;-46
2023/06/18 05:19:02;;;;;;;17.63;15.93;;;;;;;17.58;100.00;94451.44;5093304;28;20281;-46
2023/06/18 05:21:29;;;;;;;19.13;17.33;;;;;;;17.56;100.00;94452.41;5092585;28;20185;-44
2023/06/18 05:23:56;;;;;;;19.63;17.53;;;;;;;17.60;100.00;94447.66;5092412;28;20185;-43
2023/06/18 05:26:23;;;;;;;18.20;16.40;;;;;;;17.60;100.00;94458.00;5093378;28;20224;-45
2023/06/18 05:28:50;;;;;;;19.03;17.03;;;;;;;17.59;100.00;94464.16;5094013;28;20560;-46
2023/06/18 05:31:17;;;;;;;18.40;16.50;;;;;;;17.60;100.00;94463.19;5092842;28;20230;-47
2023/06/18 05:33:45;;;;;;;17.37;15.77;;;;;;;17.56;100.00;94469.69;5092129;28;20216;-47
2023/06/18 05:36:12;;;;;;;19.53;17.60;;;;;;;17.49;100.00;94472.25;5091578;28;20194;-46
2023/06/18 05:38:38;;;;;;;19.20;17.30;;;;;;;17.43;100.00;94461.84;5092440;28;20189;-46
2023/06/18 05:41:05;;;;;;;20.07;16.87;;;;;;;17.52;100.00;94473.66;5092076;28;20610;-46
2023/06/18 05:43:32;;;;;;;19.43;17.33;;;;;;;17.50;100.00;94476.44;5091675;28;20213;-44
2023/06/18 05:45:59;;;;;;;18.47;16.67;;;;;;;17.52;100.00;94474.44;5091526;28;20201;-46
2023/06/18 05:48:26;;;;;;;18.20;16.27;;;;;;;17.49;100.00;94484.38;5091369;28;20190;-44
2023/06/18 05:50:54;;;;;;;18.47;16.67;;;;;;;17.53;100.00;94480.44;5092010;28;20640;-47
2023/06/18 05:53:21;;;;;;;19.10;17.20;;;;;;;17.51;100.00;94480.59;5091307;28;20209;-46
2023/06/18 05:55:48;;;;;;;21.63;16.67;;;;;;;17.53;100.00;94483.81;5091337;28;20198;-45
2023/06/18 05:58:14;;;;;;;19.60;17.47;;;;;;;17.57;100.00;94489.41;5089154;28;20194;-45
2023/06/18 06:00:41;;;;;;;17.60;15.80;;;;;;;17.61;100.00;94492.41;5089388;28;20268;-47
2023/06/18 06:03:08;;;;;;;18.03;16.17;;;;;;;17.60;100.00;94496.78;5088747;28;20683;-46
2023/06/18 06:05:35;;;;;;;19.17;17.27;;;;;;;17.65;100.00;94496.22;5089006;28;20247;-48
2023/06/18 06:08:03;;;;;;;20.20;18.10;;;;;;;17.68;100.00;94499.25;5089238;28;20865;-44
2023/06/18 06:10:30;;;;;;;18.90;16.80;;;;;;;17.70;100.00;94497.28;5088625;28;20193;-45
2023/06/18 06:12:57;;;;;;;17.33;15.63;;;;;;;17.71;100.00;94509.22;5088419;28;20735;-45
2023/06/18 06:15:24;;;;;;;20.00;18.00;;;;;;;17.75;100.00;94504.53;5088835;28;20189;-48
2023/06/18 06:17:51;;;;;;;19.43;17.33;;;;;;;17.82;100.00;94513.13;5088649;28;20258;-47
2023/06/18 06:20:18;;;;;;;18.83;17.00;;;;;;;17.83;100.00;94512.13;5089027;28;20189;-48
2023/06/18 06:22:44;;;;;;;18.30;16.40;;;;;;;17.89;100.00;94523.53;5088362;28;20209;-47
2023/06/18 06:25:13;;;;;;;18.00;16.03;;;;;;;17.91;100.00;94524.13;5088442;28;20240;-46
2023/06/18 06:27:41;;;;;;;23.00;16.80;;;;;;;17.96;100.00;94524.38;5088732;28;20212;-46
2023/06/18 06:30:09;;;;;;;17.30;15.50;;;;;;;18.02;100.00;94527.03;5088277;28;20194;-47
2023/06/18 06:32:36;;;;;;;18.07;16.17;;;;;;;18.04;100.00;94522.44;5068361;28;20677;-46
2023/06/18 06:35:03;;;;;;;18.27;16.03;;;;;;;18.09;100.00;94531.44;5067961;28;20285;-47
2023/06/18 06:37:32;;;;;;;16.60;14.90;;;;;;;18.13;100.00;94530.88;5068836;28;20187;-47
2023/06/18 06:39:59;;;;;;;18.33;16.57;;;;;;;18.17;100.00;94528.72;5068203;28;20198;-45
2023/06/18 06:42:27;;;;;;;16.73;15.10;;;;;;;18.29;100.00;94537.56;5088480;28;20214;-48
2023/06/18 06:44:54;;;;;;;17.50;15.80;;;;;;;18.35;100.00;94526.47;5090932;28;20200;-48
2023/06/18 06:47:21;;;;;;;16.73;15.13;;;;;;;18.51;100.00;94536.50;5089809;28;20190;-47
2023/06/18 06:49:47;;;;;;;17.20;15.50;;;;;;;18.64;100.00;94540.16;5087889;28;20391;-47
2023/06/18 06:52:14;;;;;;;16.27;14.57;;;;;;;18.77;100.00;94542.88;5088959;28;20654;-48
2023/06/18 06:54:41;;;;;;;16.67;14.27;;;;;;;18.94;100.00;94546.72;5089102;28;20201;-48
2023/06/18 06:57:08;;;;;;;17.03;15.30;;;;;;;19.09;100.00;94543.22;5088057;28;20219;-46
2023/06/18 06:59:36;;;;;;;16.20;14.63;;;;;;;19.31;100.00;94539.50;5087388;28;20309;-47
2023/06/18 07:02:03;;;;;;;16.60;13.82;;;;;;;19.47;100.00;94546.13;5087861;28;20193;-47
2023/06/18 07:04:30;;;;;;;15.73;14.18;;;;;;;19.58;100.00;94547.34;5088305;28;20597;-47
2023/06/18 07:06:57;;;;;;;14.52;12.68;;;;;;;19.68;100.00;94545.19;5088197;28;20194;-46
2023/06/18 07:09:24;;;;;;;15.43;13.20;;;;;;;19.78;99.86;94550.81;5086979;28;20178;-46
2023/06/18 07:11:50;;;;;;;14.60;13.20;;;;;;;19.77;98.83;94547.44;5087665;28;20202;-48
2023/06/18 07:14:17;;;;;;;16.13;12.63;;;;;;;19.79;98.09;94553.19;5087433;28;20656;-47
2023/06/18 07:16:45;;;;;;;13.00;11.75;;;;;;;19.86;96.53;94562.78;5087624;28;20197;-46
2023/06/18 07:19:12;;;;;;;12.90;11.60;;;;;;;19.87;94.03;94560.00;5086957;28;20189;-47
2023/06/18 07:21:39;;;;;;;13.82;11.43;;;;;;;19.90;95.14;94559.59;5086784;28;20258;-46
2023/06/18 07:24:06;;;;;;;13.18;11.15;;;;;;;20.01;94.06;94558.22;5087164;28;20224;-46
2023/06/18 07:26:33;;;;;;;14.35;11.43;;;;;;;20.15;93.71;94559.81;5087456;28;20772;-45
2023/06/18 07:29:00;;;;;;;12.07;10.75;;;;;;;20.35;93.69;94565.00;5086696;28;20692;-46
2023/06/18 07:31:26;;;;;;;13.13;10.73;;;;;;;20.46;92.38;94559.19;5089052;28;20185;-42
2023/06/18 07:33:55;;;;;;;13.55;11.60;;;;;;;20.51;92.65;94556.84;5089665;28;20205;-45
2023/06/18 07:36:22;;;;;;;13.52;10.75;;;;;;;20.52;92.32;94563.63;5089889;28;20198;-47
2023/06/18 07:38:49;;;;;;;12.18;11.00;;;;;;;20.49;92.92;94566.63;5089463;28;20225;-46
2023/06/18 07:41:16;;;;;;;13.10;11.73;;;;;;;20.47;92.79;94567.81;5093318;28;20178;-45
2023/06/18 07:43:43;;;;;;;12.32;11.07;;;;;;;20.36;92.90;94566.59;5091956;28;20220;-46
2023/06/18 07:46:10;;;;;;;13.65;11.35;;;;;;;20.28;93.22;94569.41;5089925;28;20193;-44
2023/06/18 07:48:37;;;;;;;13.80;11.02;;;;;;;20.20;92.82;94564.41;5089360;28;20190;-46
2023/06/18 07:51:06;;;;;;;12.77;11.13;;;;;;;20.18;92.20;94567.22;5089740;28;20277;-46
2023/06/18 07:53:33;;;;;;;12.23;10.90;;;;;;;20.10;92.46;94567.41;5089851;28;20189;-45
2023/06/18 07:56:00;;;;;;;13.00;11.63;;;;;;;20.05;92.35;94575.78;5089919;28;20638;-45
2023/06/18 07:58:26;;;;;;;12.07;10.95;;;;;;;20.00;93.70;94572.19;5089772;28;20288;-47
2023/06/18 08:00:53;;;;;;;12.77;11.52;;;;;;;19.88;94.17;94564.19;5089597;28;20194;-46
2023/06/18 08:03:21;;;;;;;12.80;11.50;;;;;;;19.84;93.98;94578.56;5089722;28;20217;-46
2023/06/18 08:05:48;;;;;;;13.00;10.98;;;;;;;19.61;94.26;94547.78;5089280;28;20227;-47
2023/06/18 08:08:16;;;;;;;11.68;10.57;;;;;;;19.83;94.29;94581.38;5089378;28;20189;-47
2023/06/18 08:10:43;;;;;;;11.82;10.73;;;;;;;19.81;93.68;94576.34;5089164;28;20193;-46
2023/06/18 08:13:09;;;;;;;11.63;10.60;;;;;;;19.87;93.17;94579.97;5089343;28;20209;-47
2023/06/18 08:15:36;;;;;;;11.60;10.55;;;;;;;19.90;91.98;94588.13;5089147;28;20579;-46
2023/06/18 08:18:03;;;;;;;11.48;10.38;;;;;;;19.93;89.60;94594.75;5089496;28;20201;-45
2023/06/18 08:20:30;;;;;;;11.40;10.30;;;;;;;19.83;90.92;94602.13;5089137;28;20645;-45
2023/06/18 08:22:57;;;;;;;10.70;9.60;;;;;;;19.81;91.29;94599.72;5089652;28;20298;-47
2023/06/18 08:25:25;;;;;;;13.32;10.77;;;;;;;19.80;90.56;94604.09;5089246;28;20232;-48
2023/06/18 08:27:52;;;;;;;11.38;10.27;;;;;;;19.83;90.82;94607.31;5090495;28;20667;-48
2023/06/18 08:30:19;;;;;;;15.32;11.35;;;;;;;19.74;91.64;94586.72;5090165;28;20641;-46
2023/06/18 08:32:46;;;;;;;11.88;10.68;;;;;;;19.91;91.53;94610.53;5089358;28;20196;-47
2023/06/18 08:35:12;;;;;;;12.23;10.82;;;;;;;19.94;90.43;94611.91;5089240;28;20640;-46
2023/06/18 08:37:40;;;;;;;10.90;9.90;;;;;;;20.00;89.97;94609.34;5088890;28;20251;-45
2023/06/18 08:40:08;;;;;;;12.15;9.82;;;;;;;20.05;90.03;94622.53;5089476;28;20267;-46
2023/06/18 08:42:37;;;;;;;11.32;9.88;;;;;;;20.13;90.26;94623.34;5092356;28;20223;-46
2023/06/18 08:45:05;;;;;;;11.30;10.20;;;;;;;20.15;89.86;94618.72;5092946;28;20243;-46
2023/06/18 08:47:34;;;;;;;18.13;11.10;;;;;;;20.19;89.75;94615.53;5092807;28;20193;-45
2023/06/18 08:50:01;;;;;;;12.55;10.93;;;;;;;20.21;91.05;94608.38;5093236;28;20580;-46
2023/06/18 08:52:30;;;;;;;11.63;10.52;;;;;;;20.42;91.21;94611.75;5093167;28;20209;-48
2023/06/18 08:55:01;;;;;;;10.70;9.07;;;;;;;20.53;89.37;94617.16;5092877;28;20236;-46
2023/06/18 08:57:33;;;;;;;12.02;10.77;;;;;;;20.71;89.58;94620.97;5092688;28;20186;-47
2023/06/18 09:00:03;;;;;;;10.93;9.90;;;;;;;20.83;87.54;94611.53;5092773;28;20680;-45
2023/06/18 09:02:31;;;;;;;11.18;10.13;;;;;;;21.09;87.54;94625.50;5092447;28;20198;-47
2023/06/18 09:04:59;;;;;;;12.07;9.50;;;;;;;21.34;84.92;94628.25;5092597;28;20225;-46
2023/06/18 09:07:26;;;;;;;10.00;9.00;;;;;;;21.45;84.18;94622.38;5092910;28;20564;-46
2023/06/18 09:09:53;;;;;;;10.45;8.88;;;;;;;21.58;84.29;94632.75;5092755;28;20193;-47
2023/06/18 09:12:20;;;;;;;9.45;8.43;;;;;;;21.76;83.71;94630.28;5092386;28;20195;-46
2023/06/18 09:14:47;;;;;;;9.57;8.68;;;;;;;21.85;83.62;94625.63;5092416;28;20190;-47
2023/06/18 09:17:16;;;;;;;9.73;8.82;;;;;;;21.99;82.84;94626.34;5093657;28;20276;-44
2023/06/18 09:19:44;;;;;;;9.95;8.48;;;;;;;22.06;83.93;94627.06;5094733;28;20189;-46
2023/06/18 09:22:16;;;;;;;9.77;8.65;;;;;;;22.14;82.60;94628.66;5092956;28;20182;-47
2023/06/18 09:24:43;;;;;;;9.23;8.43;;;;;;;22.21;79.86;94632.03;5092301;28;20703;-46
2023/06/18 09:27:11;;;;;;;9.10;8.23;;;;;;;22.22;80.12;94624.00;5092208;28;20574;-48
2023/06/18 09:29:40;;;;;;;8.65;7.85;;;;;;;22.35;80.84;94628.31;5092453;28;20276;-48
2023/06/18 09:32:08;;;;;;;9.13;8.32;;;;;;;22.55;78.94;94625.56;5092213;28;20192;-46
2023/06/18 09:34:37;;;;;;;8.88;8.07;;;;;;;22.65;79.41;94627.69;5092365;28;20178;-47
2023/06/18 09:37:05;;;;;;;8.25;7.45;;;;;;;22.77;79.15;94625.97;5092449;28;20189;-47
2023/06/18 09:39:35;;;;;;;9.45;7.80;;;;;;;22.89;76.82;94623.47;5092156;28;20189;-48
2023/06/18 09:42:08;;;;;;;9.63;7.53;;;;;;;22.89;76.73;94619.03;5095547;28;20186;-47
2023/06/18 09:44:35;;;;;;;8.95;7.70;;;;;;;22.93;75.95;94625.47;5093582;28;20221;-46
2023/06/18 09:47:03;;;;;;;7.93;7.18;;;;;;;22.92;76.42;94626.44;5091917;28;20201;-48
2023/06/18 09:49:30;;;;;;;8.23;7.50;;;;;;;22.53;76.57;94557.19;5092324;28;20238;-47
2023/06/18 09:51:58;;;;;;;7.97;7.18;;;;;;;22.93;76.37;94615.03;5092265;28;20779;-48
2023/06/18 09:54:38;;;;;;;8.05;7.28;;;;;;;22.88;78.13;94619.25;5091149;28;20197;-46
2023/06/18 09:57:07;;;;;;;9.90;7.63;;;;;;;22.85;77.82;94624.91;5091728;28;20189;-47
2023/06/18 09:59:34;;;;;;;9.18;7.10;;;;;;;22.74;76.95;94618.56;5091528;28;20279;-46
2023/06/18 10:02:01;;;;;;;8.32;7.57;;;;;;;22.58;76.07;94606.88;5092434;28;20733;-47
2023/06/18 10:04:28;;;;;;;9.05;7.85;;;;;;;22.70;77.39;94626.03;5092431;28;20237;-48
2023/06/18 10:06:58;;;;;;;8.18;7.38;;;;;;;22.66;75.55;94624.06;5092011;28;20182;-48
2023/06/18 10:09:32;;;;;;;9.30;6.28;;;;;;;22.63;74.85;94620.09;5091597;28;20637;-45
2023/06/18 10:12:00;;;;;;;7.50;6.80;;;;;;;22.66;75.39;94622.25;5092063;28;20197;-47
2023/06/18 10:14:29;;;;;;;8.35;7.13;;;;;;;22.70;75.81;94627.84;5092018;28;20198;-48
2023/06/18 10:17:09;;;;;;;7.32;6.65;;;;;;;22.82;73.68;94627.94;5091389;28;20661;-45
2023/06/18 10:19:47;;;;;;;9.25;7.20;;;;;;;22.77;73.50;94624.16;5091326;28;20221;-46
2023/06/18 10:22:16;;;;;;;6.70;5.97;;;;;;;22.88;74.17;94616.63;5091562;28;20194;-46
2023/06/18 10:24:48;;;;;;;7.68;6.32;;;;;;;22.94;74.42;94624.44;5091140;28;20220;-48
2023/06/18 10:27:16;;;;;;;7.53;6.82;;;;;;;22.95;74.27;94625.22;5092108;28;20182;-46
2023/06/18 10:29:43;;;;;;;7.55;6.57;;;;;;;22.98;73.98;94620.38;5094262;28;20672;-48
2023/06/18 10:32:11;;;;;;;7.43;6.80;;;;;;;22.93;73.12;94599.38;5095095;28;20193;-48
2023/06/18 10:34:39;;;;;;;7.80;6.78;;;;;;;23.05;73.48;94615.09;5090869;28;20231;-47
2023/06/18 10:37:07;;;;;;;6.75;6.15;;;;;;;23.11;72.42;94619.47;5090899;28;20235;-45
2023/06/18 10:39:34;;;;;;;7.18;6.53;;;;;;;23.12;72.68;94609.81;5090895;28;20258;-47
2023/06/18 10:42:12;;;;;;;7.78;6.13;;;;;;;23.17;74.79;94610.75;5090816;28;20300;-47
2023/06/18 10:44:51;;;;;;;7.13;6.38;;;;;;;23.21;75.07;94598.88;5090662;28;20962;-47
2023/06/18 10:47:19;;;;;;;6.32;5.82;;;;;;;23.31;75.27;94602.75;5091113;28;20193;-48
2023/06/18 10:50:12;;;;;;;7.28;6.57;;;;;;;23.42;75.57;94607.25;5090394;28;20680;-47
2023/06/18 10:52:40;;;;;;;6.63;5.95;;;;;;;23.49;75.63;94602.78;5090411;28;20272;-46
2023/06/18 10:55:09;;;;;;;7.70;6.80;;;;;;;23.53;75.17;94596.88;5090403;28;20190;-46
2023/06/18 10:57:38;;;;;;;6.95;6.32;;;;;;;23.47;74.48;94583.91;5090476;28;20190;-46
2023/06/18 11:00:25;;;;;;;6.35;5.75;;;;;;;23.63;73.42;94592.94;5090354;28;20200;-47
2023/06/18 11:02:59;;;;;;;7.18;6.38;;;;;;;23.54;72.76;94592.47;5090047;28;20615;-47
2023/06/18 11:05:43;;;;;;;7.03;6.43;;;;;;;23.51;74.08;94596.28;5089680;28;20238;-49
2023/06/18 11:08:12;;;;;;;7.75;6.15;;;;;;;23.53;74.42;94596.06;5090192;28;20749;-48
2023/06/18 11:10:41;;;;;;;7.85;6.97;;;;;;;23.60;74.52;94601.22;5090400;28;20289;-48
2023/06/18 11:13:10;;;;;;;6.25;5.65;;;;;;;23.59;75.58;94597.81;5089979;28;20927;-46
2023/06/18 11:15:52;;;;;;;8.68;6.28;;;;;;;23.37;74.64;94566.16;5090138;28;20692;-46
2023/06/18 11:18:21;;;;;;;7.15;5.63;;;;;;;23.60;74.32;94598.59;5090261;28;20625;-45